createdAt,value
2017-07-03T00:02:25.574Z,80.60
2017-07-03T00:04:51.572Z,80.50
2017-07-03T00:07:17.511Z,80.50
2017-07-03T00:09:43.442Z,80.60
2017-07-03T00:12:10.112Z,80.50
2017-07-03T00:14:36.090Z,80.40
2017-07-03T00:17:02.053Z,80.10
2017-07-03T00:19:28.011Z,80.10
2017-07-03T00:21:53.947Z,80.50
2017-07-03T00:24:20.672Z,80.50
2017-07-03T00:26:46.619Z,80.50
2017-07-03T00:29:12.557Z,80.50
2017-07-03T00:31:38.493Z,80.70
2017-07-03T00:34:04.397Z,80.90
2017-07-03T00:36:30.335Z,81.30
2017-07-03T00:38:56.275Z,82.00
2017-07-03T00:41:22.249Z,82.20
2017-07-03T00:43:48.198Z,82.10
2017-07-03T00:46:14.160Z,82.30
2017-07-03T00:48:40.073Z,82.30
2017-07-03T00:51:06.053Z,82.30
2017-07-03T00:53:32.039Z,82.60
2017-07-03T00:55:57.980Z,82.70
2017-07-03T00:58:23.940Z,82.60
2017-07-03T01:00:49.895Z,82.30
2017-07-03T01:03:15.843Z,82.30
2017-07-03T01:05:41.771Z,82.10
2017-07-03T01:08:07.738Z,81.90
2017-07-03T01:10:33.656Z,82.20
2017-07-03T01:12:59.592Z,82.20
2017-07-03T01:15:25.591Z,82.20
2017-07-03T01:17:51.553Z,82.20
2017-07-03T01:20:17.489Z,82.40
2017-07-03T01:22:43.428Z,82.30
2017-07-03T01:25:09.394Z,82.20
2017-07-03T01:27:36.073Z,81.80
2017-07-03T01:30:02.096Z,82.20
2017-07-03T01:32:28.064Z,82.10
2017-07-03T01:34:54.018Z,82.20
2017-07-03T01:37:20.717Z,82.30
2017-07-03T01:39:46.675Z,82.30
2017-07-03T01:42:12.624Z,82.40
2017-07-03T01:44:38.586Z,82.80
2017-07-03T01:47:04.543Z,82.80
2017-07-03T01:49:30.483Z,83.00
2017-07-03T01:51:56.484Z,83.00
2017-07-03T01:54:22.479Z,82.80
2017-07-03T01:56:49.194Z,82.70
2017-07-03T01:59:15.146Z,82.80
2017-07-03T02:01:41.051Z,82.80
2017-07-03T02:04:07.026Z,83.50
2017-07-03T02:06:33.775Z,83.70
2017-07-03T02:08:59.719Z,83.80
2017-07-03T02:13:58.236Z,84.50
2017-07-03T02:16:24.159Z,84.30
2017-07-03T02:18:50.111Z,84.30
2017-07-03T02:21:16.087Z,83.90
2017-07-03T02:23:42.068Z,84.20
2017-07-03T02:26:08.008Z,83.60
2017-07-03T02:28:33.951Z,83.90
2017-07-03T02:30:59.879Z,83.70
2017-07-03T02:33:25.812Z,83.90
2017-07-03T02:35:51.792Z,83.30
2017-07-03T02:38:17.737Z,83.80
2017-07-03T02:40:43.693Z,83.90
2017-07-03T02:43:09.629Z,83.70
2017-07-03T02:45:35.583Z,83.70
2017-07-03T02:48:01.534Z,83.30
2017-07-03T02:50:27.557Z,82.90
2017-07-03T02:52:53.515Z,82.90
2017-07-03T02:55:19.514Z,82.40
2017-07-03T02:57:46.194Z,82.90
2017-07-03T03:00:12.149Z,82.80
2017-07-03T03:02:38.073Z,84.20
2017-07-03T03:05:04.018Z,83.90
2017-07-03T03:07:29.951Z,83.80
2017-07-03T03:09:55.899Z,83.90
2017-07-03T03:12:21.825Z,83.80
2017-07-03T03:14:47.755Z,83.90
2017-07-03T03:17:13.769Z,83.60
2017-07-03T03:19:40.411Z,83.00
2017-07-03T03:22:06.314Z,83.00
2017-07-03T03:24:32.260Z,82.90
2017-07-03T03:26:58.227Z,82.20
2017-07-03T03:29:24.176Z,82.40
2017-07-03T03:31:50.137Z,82.40
2017-07-03T03:34:16.075Z,82.10
2017-07-03T03:36:42.844Z,82.60
2017-07-03T03:39:09.396Z,82.60
2017-07-03T03:41:35.317Z,82.80
2017-07-03T03:44:01.232Z,82.70
2017-07-03T03:46:27.160Z,82.80
2017-07-03T03:48:53.151Z,82.60
2017-07-03T03:51:19.823Z,83.10
2017-07-03T03:53:45.778Z,83.00
2017-07-03T03:56:11.762Z,83.20
2017-07-03T03:58:37.843Z,83.00
2017-07-03T04:01:03.837Z,83.20
2017-07-03T04:03:29.753Z,83.40
2017-07-03T04:05:55.731Z,83.40
2017-07-03T04:08:21.731Z,83.40
2017-07-03T04:10:47.717Z,84.20
2017-07-03T04:13:13.708Z,85.00
2017-07-03T04:15:39.681Z,85.40
2017-07-03T04:18:05.769Z,85.50
2017-07-03T04:20:31.751Z,85.80
2017-07-03T04:22:57.689Z,85.70
2017-07-03T04:25:23.623Z,85.20
2017-07-03T04:27:49.539Z,85.20
2017-07-03T04:30:15.519Z,85.00
2017-07-03T04:32:41.478Z,84.70
2017-07-03T04:35:07.415Z,84.20
2017-07-03T04:37:33.351Z,84.30
2017-07-03T04:39:59.331Z,84.10
2017-07-03T04:42:25.239Z,84.50
2017-07-03T04:44:51.942Z,84.10
2017-07-03T04:47:17.876Z,84.00
2017-07-03T04:49:43.936Z,84.20
2017-07-03T04:52:09.936Z,83.80
2017-07-03T04:54:35.966Z,83.40
2017-07-03T04:57:01.960Z,83.00
2017-07-03T04:59:28.685Z,83.90
2017-07-03T05:01:54.643Z,83.10
2017-07-03T05:04:21.465Z,83.20
2017-07-03T05:06:47.969Z,83.10
2017-07-03T05:09:16.797Z,82.90
2017-07-03T05:11:43.517Z,81.80
2017-07-03T05:14:09.594Z,81.70
2017-07-03T05:16:35.531Z,82.00
2017-07-03T05:19:01.549Z,81.80
2017-07-03T05:21:27.566Z,82.10
2017-07-03T05:23:53.583Z,82.20
2017-07-03T05:26:19.565Z,81.20
2017-07-03T05:28:45.512Z,81.60
2017-07-03T05:31:11.456Z,81.40
2017-07-03T05:33:37.436Z,81.60
2017-07-03T05:36:03.379Z,81.20
2017-07-03T05:38:29.386Z,80.90
2017-07-03T05:40:55.415Z,80.40
2017-07-03T05:43:27.584Z,80.10
2017-07-03T05:45:53.549Z,79.60
2017-07-03T05:48:19.467Z,79.40
2017-07-03T05:50:45.415Z,79.30
2017-07-03T05:53:11.359Z,79.00
2017-07-03T05:55:37.376Z,78.40
2017-07-03T05:58:03.351Z,77.60
2017-07-03T06:00:29.352Z,77.70
2017-07-03T06:02:55.371Z,76.70
2017-07-03T06:05:24.128Z,75.80
2017-07-03T06:07:50.158Z,75.80
2017-07-03T06:10:16.108Z,74.90
2017-07-03T06:12:42.195Z,74.90
2017-07-03T06:15:08.156Z,75.30
2017-07-03T06:17:34.123Z,74.80
2017-07-03T06:20:00.110Z,74.20
2017-07-03T06:22:27.069Z,74.20
2017-07-03T06:24:53.054Z,73.90
2017-07-03T06:27:19.218Z,72.90
2017-07-03T06:29:45.182Z,70.90
2017-07-03T06:32:11.135Z,70.90
2017-07-03T06:34:37.176Z,70.90
2017-07-03T06:37:03.151Z,71.10
2017-07-03T06:39:29.132Z,70.30
2017-07-03T06:41:55.160Z,69.40
2017-07-03T06:44:21.139Z,67.10
2017-07-03T06:46:47.390Z,67.20
2017-07-03T06:49:14.131Z,69.80
2017-07-03T06:51:40.074Z,69.80
2017-07-03T06:54:06.151Z,69.30
2017-07-03T06:56:32.217Z,70.00
2017-07-03T06:58:58.303Z,69.80
2017-07-03T07:01:24.312Z,69.20
2017-07-03T07:03:50.334Z,68.20
2017-07-03T07:06:17.092Z,68.30
2017-07-03T07:08:43.094Z,68.30
2017-07-03T07:11:09.163Z,67.50
2017-07-03T07:13:35.151Z,66.10
2017-07-03T07:16:01.096Z,65.20
2017-07-03T07:18:27.152Z,64.90
2017-07-03T07:20:54.062Z,61.40
2017-07-03T07:23:20.057Z,61.50
2017-07-03T07:25:46.116Z,62.00
2017-07-03T07:28:12.091Z,59.70
2017-07-03T07:30:38.128Z,59.30
2017-07-03T07:33:04.956Z,59.30
2017-07-03T07:35:30.967Z,58.70
2017-07-03T07:37:56.967Z,59.60
2017-07-03T07:40:22.891Z,59.80
2017-07-03T07:42:49.672Z,58.70
2017-07-03T07:45:15.619Z,58.70
2017-07-03T07:47:41.620Z,59.00
2017-07-03T07:50:07.822Z,58.90
2017-07-03T07:52:33.753Z,58.80
2017-07-03T07:55:00.251Z,59.40
2017-07-03T07:57:26.999Z,59.60
2017-07-03T07:59:52.960Z,59.50
2017-07-03T08:02:18.967Z,59.30
2017-07-03T08:04:44.915Z,59.50
2017-07-03T08:07:10.884Z,59.00
2017-07-03T08:09:36.926Z,59.10
2017-07-03T08:12:02.886Z,58.60
2017-07-03T08:14:28.892Z,59.00
2017-07-03T08:16:54.832Z,59.30
2017-07-03T08:19:20.783Z,60.20
2017-07-03T08:21:46.741Z,60.50
2017-07-03T08:24:12.676Z,60.20
2017-07-03T08:26:38.595Z,59.70
2017-07-03T08:29:04.548Z,60.00
2017-07-03T08:31:30.671Z,59.70
2017-07-03T08:33:56.611Z,59.80
2017-07-03T08:36:22.580Z,59.80
2017-07-03T08:38:48.507Z,60.30
2017-07-03T08:41:14.478Z,60.00
2017-07-03T08:43:40.452Z,59.40
2017-07-03T08:46:06.450Z,59.90
2017-07-03T08:48:32.439Z,59.40
2017-07-03T08:50:58.717Z,60.00
2017-07-03T08:53:24.672Z,60.40
2017-07-03T08:55:50.663Z,59.70
2017-07-03T08:58:16.689Z,58.80
2017-07-03T09:00:42.633Z,57.90
2017-07-03T09:03:08.691Z,57.80
2017-07-03T09:05:34.673Z,57.90
2017-07-03T09:08:00.608Z,58.20
2017-07-03T09:10:26.664Z,58.10
2017-07-03T09:12:52.615Z,57.80
2017-07-03T09:15:18.594Z,58.10
2017-07-03T09:17:44.613Z,57.90
2017-07-03T09:20:11.344Z,58.10
2017-07-03T09:22:39.776Z,58.10
2017-07-03T09:25:05.824Z,58.10
2017-07-03T09:27:31.990Z,58.30
2017-07-03T09:29:57.928Z,58.30
2017-07-03T09:32:23.935Z,57.90
2017-07-03T09:34:49.910Z,57.90
2017-07-03T09:37:15.904Z,58.30
2017-07-03T09:39:41.832Z,58.60
2017-07-03T09:42:07.856Z,58.70
2017-07-03T09:44:34.783Z,58.40
2017-07-03T09:47:00.744Z,58.30
2017-07-03T09:49:26.836Z,57.80
2017-07-03T09:51:52.903Z,57.90
2017-07-03T09:54:22.352Z,57.50
2017-07-03T09:56:48.287Z,56.90
2017-07-03T09:59:15.192Z,56.80
2017-07-03T10:01:41.667Z,56.90
2017-07-03T10:04:07.690Z,57.60
2017-07-03T10:06:33.767Z,57.40
2017-07-03T10:08:59.714Z,56.30
2017-07-03T10:11:25.675Z,56.20
2017-07-03T10:13:51.692Z,55.30
2017-07-03T10:16:17.731Z,53.60
2017-07-03T10:18:43.717Z,52.60
2017-07-03T10:21:09.708Z,51.50
2017-07-03T10:23:35.742Z,51.70
2017-07-03T10:26:01.922Z,51.20
2017-07-03T10:28:27.898Z,50.90
2017-07-03T10:30:53.840Z,46.50
2017-07-03T10:33:19.887Z,47.40
2017-07-03T10:35:45.838Z,45.80
2017-07-03T10:38:11.991Z,45.20
2017-07-03T10:40:37.931Z,45.40
2017-07-03T10:43:04.039Z,46.60
2017-07-03T10:45:30.231Z,46.90
2017-07-03T10:47:56.219Z,47.40
2017-07-03T10:50:22.247Z,46.40
2017-07-03T10:52:48.238Z,46.60
2017-07-03T10:55:14.231Z,47.10
2017-07-03T10:57:41.117Z,47.80
2017-07-03T11:00:07.067Z,47.10
2017-07-03T11:02:33.058Z,47.30
2017-07-03T11:04:58.968Z,46.40
2017-07-03T11:07:25.197Z,47.00
2017-07-03T11:09:51.198Z,46.70
2017-07-03T11:12:17.125Z,46.40
2017-07-03T11:14:43.084Z,46.50
2017-07-03T11:17:09.051Z,45.60
2017-07-03T11:19:35.064Z,46.00
2017-07-03T11:22:01.766Z,45.20
2017-07-03T11:24:27.696Z,45.20
2017-07-03T11:26:53.661Z,45.20
2017-07-03T11:29:19.712Z,44.90
2017-07-03T11:31:45.668Z,45.00
2017-07-03T11:34:11.709Z,45.10
2017-07-03T11:36:37.732Z,43.80
2017-07-03T11:39:04.437Z,44.80
2017-07-03T11:41:30.405Z,44.80
2017-07-03T11:43:56.380Z,44.90
2017-07-03T11:46:22.369Z,44.80
2017-07-03T11:48:48.372Z,44.80
2017-07-03T11:51:14.396Z,44.30
2017-07-03T11:53:41.019Z,43.90
2017-07-03T11:56:09.068Z,44.30
2017-07-03T11:58:35.019Z,44.70
2017-07-03T12:01:01.874Z,45.70
2017-07-03T12:03:27.803Z,45.70
2017-07-03T12:05:54.629Z,45.10
2017-07-03T12:08:20.636Z,45.00
2017-07-03T12:10:46.618Z,44.30
2017-07-03T12:13:12.518Z,43.20
2017-07-03T12:15:38.437Z,42.10
2017-07-03T12:18:04.446Z,42.80
2017-07-03T12:20:30.401Z,42.80
2017-07-03T12:22:56.394Z,42.50
2017-07-03T12:25:22.388Z,40.30
2017-07-03T12:27:48.366Z,40.30
2017-07-03T12:30:14.456Z,40.40
2017-07-03T12:32:40.500Z,40.20
2017-07-03T12:35:06.634Z,41.20
2017-07-03T12:37:32.629Z,40.60
2017-07-03T12:39:58.571Z,41.00
2017-07-03T12:42:24.573Z,40.60
2017-07-03T12:44:50.686Z,39.80
2017-07-03T12:47:18.045Z,37.50
2017-07-03T12:49:45.298Z,37.40
2017-07-03T12:52:11.274Z,36.30
2017-07-03T12:54:38.575Z,36.10
2017-07-03T12:57:04.601Z,35.60
2017-07-03T12:59:30.620Z,34.30
2017-07-03T13:01:57.457Z,34.90
2017-07-03T13:04:24.303Z,35.40
2017-07-03T13:06:51.152Z,34.00
2017-07-03T13:09:17.118Z,33.60
2017-07-03T13:11:43.887Z,34.80
2017-07-03T13:14:09.860Z,34.70
2017-07-03T13:16:36.599Z,34.20
2017-07-03T13:19:02.614Z,34.20
2017-07-03T13:21:29.219Z,34.40
2017-07-03T13:23:55.182Z,35.20
2017-07-03T13:26:21.117Z,35.10
2017-07-03T13:28:47.204Z,35.10
2017-07-03T13:31:14.100Z,34.60
2017-07-03T13:33:40.250Z,33.60
2017-07-03T13:36:06.232Z,32.80
2017-07-03T13:38:32.178Z,32.80
2017-07-03T13:40:58.219Z,32.90
2017-07-03T13:43:24.987Z,32.50
2017-07-03T13:45:50.992Z,31.60
2017-07-03T13:48:16.966Z,31.60
2017-07-03T13:50:42.928Z,31.60
2017-07-03T13:53:08.890Z,31.40
2017-07-03T13:55:34.944Z,31.40
2017-07-03T13:58:00.916Z,32.30
2017-07-03T14:00:26.871Z,33.00
2017-07-03T14:02:52.872Z,33.40
2017-07-03T14:05:18.880Z,34.40
2017-07-03T14:07:44.842Z,34.30
2017-07-03T14:10:11.427Z,34.20
2017-07-03T14:12:37.428Z,33.10
2017-07-03T14:15:03.411Z,32.10
2017-07-03T14:17:29.380Z,32.10
2017-07-03T14:19:55.360Z,32.00
2017-07-03T14:22:21.401Z,31.60
2017-07-03T14:24:47.370Z,31.80
2017-07-03T14:27:13.345Z,31.10
2017-07-03T14:29:40.268Z,31.90
2017-07-03T14:32:06.248Z,32.30
2017-07-03T14:34:32.226Z,32.80
2017-07-03T14:36:58.168Z,32.80
2017-07-03T14:39:24.147Z,32.10
2017-07-03T14:41:50.107Z,31.90
2017-07-03T14:44:16.092Z,31.20
2017-07-03T14:46:42.132Z,30.40
2017-07-03T14:49:08.080Z,30.20
2017-07-03T14:51:34.047Z,30.30
2017-07-03T14:54:00.065Z,30.50
2017-07-03T14:56:26.043Z,31.00
2017-07-03T14:58:52.046Z,31.60
2017-07-03T15:01:18.247Z,32.50
2017-07-03T15:03:44.267Z,32.60
2017-07-03T15:06:10.234Z,32.40
2017-07-03T15:08:36.188Z,32.40
2017-07-03T15:11:02.186Z,32.40
2017-07-03T15:13:28.961Z,32.60
2017-07-03T15:15:55.705Z,32.80
2017-07-03T15:18:21.678Z,33.30
2017-07-03T15:20:47.624Z,33.50
2017-07-03T15:23:13.583Z,32.50
2017-07-03T15:25:39.599Z,31.40
2017-07-03T15:28:05.585Z,30.80
2017-07-03T15:30:32.384Z,30.60
2017-07-03T15:32:58.592Z,30.00
2017-07-03T15:35:24.550Z,30.90
2017-07-03T15:37:50.549Z,32.00
2017-07-03T15:40:17.272Z,32.80
2017-07-03T15:42:43.302Z,32.70
2017-07-03T15:45:09.586Z,32.70
2017-07-03T15:47:35.539Z,32.50
2017-07-03T15:50:01.504Z,32.30
2017-07-03T15:52:27.556Z,32.60
2017-07-03T15:54:54.243Z,33.80
2017-07-03T15:57:20.598Z,34.30
2017-07-03T15:59:46.704Z,33.90
2017-07-03T16:02:12.993Z,33.60
2017-07-03T16:04:38.977Z,33.20
2017-07-03T16:07:05.023Z,33.20
2017-07-03T16:09:31.025Z,31.80
2017-07-03T16:11:57.038Z,31.40
2017-07-03T16:14:22.990Z,31.10
2017-07-03T16:16:48.961Z,31.60
2017-07-03T16:19:15.720Z,31.80
2017-07-03T16:21:41.646Z,31.80
2017-07-03T16:24:07.609Z,31.50
2017-07-03T16:26:33.629Z,31.70
2017-07-03T16:28:59.621Z,31.90
2017-07-03T16:31:25.607Z,32.40
2017-07-03T16:33:52.486Z,31.60
2017-07-03T16:36:18.442Z,30.90
2017-07-03T16:38:44.482Z,31.00
2017-07-03T16:41:10.573Z,30.70
2017-07-03T16:43:36.560Z,30.90
2017-07-03T16:46:02.588Z,30.90
2017-07-03T16:48:28.609Z,30.70
2017-07-03T16:50:54.544Z,30.30
2017-07-03T16:53:20.593Z,30.00
2017-07-03T16:55:46.836Z,30.00
2017-07-03T16:58:12.771Z,30.00
2017-07-03T17:00:38.766Z,30.90
2017-07-03T17:03:04.741Z,31.20
2017-07-03T17:05:30.719Z,32.00
2017-07-03T17:07:56.719Z,31.70
2017-07-03T17:10:22.756Z,31.20
2017-07-03T17:12:48.915Z,31.50
2017-07-03T17:15:14.947Z,31.10
2017-07-03T17:17:41.163Z,31.40
2017-07-03T17:20:07.186Z,31.60
2017-07-03T17:22:34.709Z,31.80
2017-07-03T17:25:00.760Z,31.80
2017-07-03T17:27:26.941Z,32.10
2017-07-03T17:29:53.048Z,32.20
2017-07-03T17:32:19.168Z,32.40
2017-07-03T17:34:45.444Z,32.60
2017-07-03T17:37:11.412Z,32.50
2017-07-03T17:39:38.254Z,32.60
2017-07-03T17:42:04.670Z,33.00
2017-07-03T17:44:32.178Z,32.90
2017-07-03T17:46:58.690Z,33.10
2017-07-03T17:49:24.733Z,33.10
2017-07-03T17:51:50.773Z,33.40
2017-07-03T17:54:17.819Z,33.70
2017-07-03T17:56:43.817Z,33.70
2017-07-03T17:59:09.788Z,33.90
2017-07-03T18:01:36.491Z,33.70
2017-07-03T18:04:02.492Z,33.70
2017-07-03T18:06:28.502Z,34.00
2017-07-03T18:08:54.529Z,34.40
2017-07-03T18:11:20.460Z,34.40
2017-07-03T18:13:46.907Z,34.60
2017-07-03T18:16:14.762Z,34.30
2017-07-03T18:18:42.885Z,33.20
2017-07-03T18:21:08.840Z,33.30
2017-07-03T18:23:35.568Z,33.80
2017-07-03T18:26:01.525Z,34.10
2017-07-03T18:28:27.474Z,34.40
2017-07-03T18:30:53.640Z,34.40
2017-07-03T18:33:19.675Z,34.00
2017-07-03T18:35:46.379Z,34.40
2017-07-03T18:38:13.335Z,35.60
2017-07-03T18:40:39.381Z,35.50
2017-07-03T18:43:07.026Z,35.70
2017-07-03T18:45:33.007Z,35.70
2017-07-03T18:47:59.255Z,35.50
2017-07-03T18:50:27.376Z,35.00
2017-07-03T18:52:54.285Z,34.40
2017-07-03T18:55:21.089Z,34.40
2017-07-03T18:57:47.654Z,33.00
2017-07-03T19:00:13.667Z,32.70
2017-07-03T19:02:39.684Z,32.70
2017-07-03T19:05:06.869Z,32.30
2017-07-03T19:07:32.834Z,32.70
2017-07-03T19:10:04.304Z,32.40
2017-07-03T19:12:31.090Z,33.60
2017-07-03T19:14:57.143Z,34.90
2017-07-03T19:17:23.184Z,36.10
2017-07-03T19:19:49.181Z,36.30
2017-07-03T19:22:15.419Z,36.40
2017-07-03T19:24:41.474Z,36.40
2017-07-03T19:27:08.288Z,36.90
2017-07-03T19:29:34.334Z,36.70
2017-07-03T19:32:00.322Z,36.90
2017-07-03T19:34:26.307Z,36.60
2017-07-03T19:36:52.267Z,36.90
2017-07-03T19:39:18.242Z,37.20
2017-07-03T19:41:44.235Z,37.40
2017-07-03T19:44:10.185Z,37.70
2017-07-03T19:46:36.821Z,38.00
2017-07-03T19:49:02.826Z,37.90
2017-07-03T19:51:28.792Z,38.20
2017-07-03T19:53:54.744Z,38.40
2017-07-03T19:56:20.711Z,38.70
2017-07-03T19:58:46.633Z,38.80
2017-07-03T20:01:12.614Z,38.90
2017-07-03T20:03:38.743Z,39.20
2017-07-03T20:06:04.724Z,39.20
2017-07-03T20:08:30.674Z,39.20
2017-07-03T20:10:56.631Z,39.60
2017-07-03T20:13:22.856Z,39.50
2017-07-03T20:15:48.892Z,39.80
2017-07-03T20:18:15.796Z,40.70
2017-07-03T20:20:41.780Z,40.30
2017-07-03T20:23:08.621Z,40.40
2017-07-03T20:25:34.891Z,40.40
2017-07-03T20:28:01.595Z,40.60
2017-07-03T20:30:27.575Z,40.80
2017-07-03T20:32:53.517Z,40.70
2017-07-03T20:35:19.566Z,40.70
2017-07-03T20:37:45.490Z,40.90
2017-07-03T20:40:11.427Z,40.70
2017-07-03T20:42:37.411Z,41.10
2017-07-03T20:45:03.344Z,40.90
2017-07-03T20:47:29.376Z,41.30
2017-07-03T20:49:55.405Z,41.20
2017-07-03T20:52:21.390Z,41.00
2017-07-03T20:54:47.400Z,41.00
2017-07-03T20:57:13.299Z,41.10
2017-07-03T20:59:39.291Z,41.20
2017-07-03T21:02:05.264Z,41.00
2017-07-03T21:04:32.103Z,40.90
2017-07-03T21:06:58.050Z,40.80
2017-07-03T21:09:23.987Z,40.60
2017-07-03T21:11:49.910Z,40.90
2017-07-03T21:14:16.004Z,41.00
2017-07-03T21:16:41.969Z,41.10
2017-07-03T21:19:08.752Z,41.10
2017-07-03T21:21:35.622Z,41.20
2017-07-03T21:24:01.656Z,41.10
2017-07-03T21:26:28.487Z,41.40
2017-07-03T21:28:54.656Z,41.30
2017-07-03T21:31:21.392Z,41.40
2017-07-03T21:33:47.353Z,41.40
2017-07-03T21:36:13.348Z,41.50
2017-07-03T21:38:39.343Z,41.70
2017-07-03T21:41:05.443Z,41.90
2017-07-03T21:43:31.449Z,41.80
2017-07-03T21:45:57.472Z,41.90
2017-07-03T21:48:23.514Z,41.50
2017-07-03T21:50:49.566Z,41.40
2017-07-03T21:53:15.560Z,41.20
2017-07-03T21:55:41.495Z,41.00
2017-07-03T21:58:07.479Z,41.10
2017-07-03T22:00:33.542Z,41.30
2017-07-03T22:03:01.120Z,41.10
2017-07-03T22:05:27.128Z,41.00
2017-07-03T22:07:54.061Z,41.00
2017-07-03T22:10:19.996Z,40.70
2017-07-03T22:12:46.021Z,40.50
2017-07-03T22:15:12.068Z,40.70
2017-07-03T22:17:38.006Z,40.70
2017-07-03T22:20:04.435Z,40.70
2017-07-03T22:22:30.410Z,40.80
2017-07-03T22:24:56.372Z,40.90
2017-07-03T22:27:22.324Z,41.00
2017-07-03T22:29:48.334Z,41.10
2017-07-03T22:32:14.260Z,41.10
2017-07-03T22:34:40.256Z,41.30
2017-07-03T22:37:06.375Z,41.30
2017-07-03T22:39:32.335Z,41.20
2017-07-03T22:41:58.317Z,41.30
2017-07-03T22:44:24.272Z,41.50
2017-07-03T22:46:50.251Z,41.20
2017-07-03T22:49:16.902Z,41.80
2017-07-03T22:51:42.850Z,41.80
2017-07-03T22:54:08.799Z,42.70
2017-07-03T22:56:34.766Z,43.10
2017-07-03T22:59:01.104Z,43.20
2017-07-03T23:01:27.175Z,43.90
2017-07-03T23:03:53.158Z,44.10
2017-07-03T23:06:19.096Z,44.50
2017-07-03T23:08:45.029Z,44.80
2017-07-03T23:11:10.999Z,45.00
2017-07-03T23:13:37.662Z,45.60
2017-07-03T23:16:03.610Z,45.50
2017-07-03T23:18:29.577Z,45.90
2017-07-03T23:20:56.347Z,46.10
2017-07-03T23:23:22.314Z,46.50
2017-07-03T23:25:49.310Z,46.90
2017-07-03T23:28:16.590Z,47.10
2017-07-03T23:30:42.549Z,47.20
2017-07-03T23:33:08.502Z,47.50
2017-07-03T23:35:35.401Z,47.60
2017-07-03T23:38:01.464Z,47.90
2017-07-03T23:40:27.445Z,48.30
2017-07-03T23:42:53.469Z,48.50
2017-07-03T23:45:20.166Z,48.30
2017-07-03T23:47:46.152Z,48.60
2017-07-03T23:50:12.101Z,48.80
2017-07-03T23:52:38.041Z,49.20
2017-07-03T23:55:04.027Z,49.40
2017-07-03T23:57:29.966Z,49.50
2017-07-03T23:59:55.913Z,49.40
